sensor_id;sensor_type;location;lat;lon;timestamp;P1;durP1;ratioP1;P2;durP2;ratioP2
78750;SDS011;68070;50.954;11.060;2023-04-29T00:00:26;6.30;;;4.60;;
78750;SDS011;68070;50.954;11.060;2023-04-29T00:03:11;7.80;;;4.90;;
78750;SDS011;68070;50.954;11.060;2023-04-29T00:05:55;7.20;;;5.20;;
78750;SDS011;68070;50.954;11.060;2023-04-29T00:08:39;5.70;;;5.10;;
78750;SDS011;68070;50.954;11.060;2023-04-29T00:11:24;5.10;;;4.10;;
78750;SDS011;68070;50.954;11.060;2023-04-29T00:14:08;6.50;;;4.90;;
78750;SDS011;68070;50.954;11.060;2023-04-29T00:16:52;5.00;;;4.30;;
78750;SDS011;68070;50.954;11.060;2023-04-29T00:19:37;4.50;;;3.60;;
78750;SDS011;68070;50.954;11.060;2023-04-29T00:22:21;5.50;;;4.40;;
78750;SDS011;68070;50.954;11.060;2023-04-29T00:25:06;7.10;;;4.20;;
78750;SDS011;68070;50.954;11.060;2023-04-29T00:27:51;5.40;;;3.80;;
78750;SDS011;68070;50.954;11.060;2023-04-29T00:30:35;5.40;;;3.70;;
78750;SDS011;68070;50.954;11.060;2023-04-29T00:33:20;6.00;;;4.20;;
78750;SDS011;68070;50.954;11.060;2023-04-29T00:36:04;7.00;;;5.10;;
78750;SDS011;68070;50.954;11.060;2023-04-29T00:38:48;5.10;;;4.00;;
78750;SDS011;68070;50.954;11.060;2023-04-29T00:41:33;5.90;;;5.30;;
78750;SDS011;68070;50.954;11.060;2023-04-29T00:44:17;6.00;;;5.20;;
78750;SDS011;68070;50.954;11.060;2023-04-29T00:47:01;6.50;;;4.00;;
78750;SDS011;68070;50.954;11.060;2023-04-29T00:49:46;5.90;;;4.70;;
78750;SDS011;68070;50.954;11.060;2023-04-29T00:52:30;5.80;;;4.20;;
78750;SDS011;68070;50.954;11.060;2023-04-29T00:55:15;4.30;;;3.40;;
78750;SDS011;68070;50.954;11.060;2023-04-29T00:58:01;5.30;;;4.40;;
78750;SDS011;68070;50.954;11.060;2023-04-29T01:00:47;4.60;;;3.70;;
78750;SDS011;68070;50.954;11.060;2023-04-29T01:03:32;6.20;;;4.80;;
78750;SDS011;68070;50.954;11.060;2023-04-29T01:15:22;7.40;;;5.70;;
78750;SDS011;68070;50.954;11.060;2023-04-29T01:18:17;8.90;;;6.50;;
78750;SDS011;68070;50.954;11.060;2023-04-29T01:21:07;5.10;;;4.00;;
78750;SDS011;68070;50.954;11.060;2023-04-29T01:23:52;6.30;;;4.90;;
78750;SDS011;68070;50.954;11.060;2023-04-29T01:26:45;5.60;;;3.60;;
78750;SDS011;68070;50.954;11.060;2023-04-29T01:39:08;4.00;;;3.00;;
78750;SDS011;68070;50.954;11.060;2023-04-29T01:45:04;4.80;;;3.40;;
78750;SDS011;68070;50.954;11.060;2023-04-29T01:47:52;4.90;;;4.30;;
78750;SDS011;68070;50.954;11.060;2023-04-29T01:50:39;6.40;;;4.20;;
78750;SDS011;68070;50.954;11.060;2023-04-29T01:53:32;5.10;;;3.70;;
78750;SDS011;68070;50.954;11.060;2023-04-29T01:56:16;6.20;;;4.10;;
78750;SDS011;68070;50.954;11.060;2023-04-29T01:59:15;6.40;;;4.40;;
78750;SDS011;68070;50.954;11.060;2023-04-29T02:02:13;5.90;;;4.90;;
78750;SDS011;68070;50.954;11.060;2023-04-29T02:05:05;6.70;;;5.40;;
78750;SDS011;68070;50.954;11.060;2023-04-29T02:07:50;7.90;;;6.00;;
78750;SDS011;68070;50.954;11.060;2023-04-29T02:10:35;7.30;;;4.60;;
78750;SDS011;68070;50.954;11.060;2023-04-29T02:13:28;6.30;;;5.40;;
78750;SDS011;68070;50.954;11.060;2023-04-29T02:16:14;7.70;;;5.10;;
78750;SDS011;68070;50.954;11.060;2023-04-29T02:19:12;5.40;;;3.90;;
78750;SDS011;68070;50.954;11.060;2023-04-29T02:21:57;5.30;;;4.70;;
78750;SDS011;68070;50.954;11.060;2023-04-29T02:24:41;7.10;;;4.50;;
78750;SDS011;68070;50.954;11.060;2023-04-29T02:27:25;6.10;;;3.80;;
78750;SDS011;68070;50.954;11.060;2023-04-29T02:30:10;5.60;;;3.70;;
78750;SDS011;68070;50.954;11.060;2023-04-29T02:32:54;4.80;;;3.60;;
78750;SDS011;68070;50.954;11.060;2023-04-29T02:35:38;7.80;;;3.60;;
78750;SDS011;68070;50.954;11.060;2023-04-29T02:38:23;4.70;;;3.50;;
78750;SDS011;68070;50.954;11.060;2023-04-29T02:41:08;6.20;;;4.10;;
78750;SDS011;68070;50.954;11.060;2023-04-29T02:43:52;6.40;;;3.60;;
78750;SDS011;68070;50.954;11.060;2023-04-29T02:46:37;7.90;;;4.10;;
78750;SDS011;68070;50.954;11.060;2023-04-29T02:49:23;5.50;;;3.10;;
78750;SDS011;68070;50.954;11.060;2023-04-29T02:52:09;4.20;;;3.10;;
78750;SDS011;68070;50.954;11.060;2023-04-29T02:58:25;3.90;;;2.90;;
78750;SDS011;68070;50.954;11.060;2023-04-29T03:01:10;3.60;;;2.70;;
78750;SDS011;68070;50.954;11.060;2023-04-29T03:03:54;4.70;;;3.40;;
78750;SDS011;68070;50.954;11.060;2023-04-29T03:06:38;4.10;;;2.50;;
78750;SDS011;68070;50.954;11.060;2023-04-29T03:09:23;3.90;;;3.20;;
78750;SDS011;68070;50.954;11.060;2023-04-29T03:12:07;4.40;;;3.40;;
78750;SDS011;68070;50.954;11.060;2023-04-29T03:14:52;3.70;;;2.40;;
78750;SDS011;68070;50.954;11.060;2023-04-29T03:17:36;5.70;;;3.80;;
78750;SDS011;68070;50.954;11.060;2023-04-29T03:20:20;3.70;;;2.90;;
78750;SDS011;68070;50.954;11.060;2023-04-29T03:23:05;3.70;;;2.70;;
78750;SDS011;68070;50.954;11.060;2023-04-29T03:25:49;3.40;;;2.60;;
78750;SDS011;68070;50.954;11.060;2023-04-29T03:28:35;4.50;;;3.30;;
78750;SDS011;68070;50.954;11.060;2023-04-29T03:31:20;4.10;;;3.00;;
78750;SDS011;68070;50.954;11.060;2023-04-29T03:34:06;4.40;;;3.50;;
78750;SDS011;68070;50.954;11.060;2023-04-29T03:36:52;5.30;;;3.20;;
78750;SDS011;68070;50.954;11.060;2023-04-29T03:39:37;3.50;;;2.80;;
78750;SDS011;68070;50.954;11.060;2023-04-29T03:42:21;3.90;;;3.00;;
78750;SDS011;68070;50.954;11.060;2023-04-29T03:45:06;4.70;;;3.80;;
78750;SDS011;68070;50.954;11.060;2023-04-29T03:47:50;4.80;;;3.60;;
78750;SDS011;68070;50.954;11.060;2023-04-29T03:50:36;5.10;;;3.20;;
78750;SDS011;68070;50.954;11.060;2023-04-29T03:53:21;6.30;;;4.50;;
78750;SDS011;68070;50.954;11.060;2023-04-29T03:56:06;4.30;;;2.70;;
78750;SDS011;68070;50.954;11.060;2023-04-29T03:58:51;3.80;;;2.70;;
78750;SDS011;68070;50.954;11.060;2023-04-29T04:01:37;6.50;;;4.10;;
78750;SDS011;68070;50.954;11.060;2023-04-29T04:04:21;4.70;;;3.30;;
78750;SDS011;68070;50.954;11.060;2023-04-29T04:07:07;4.80;;;3.00;;
78750;SDS011;68070;50.954;11.060;2023-04-29T04:10:04;3.90;;;3.20;;
78750;SDS011;68070;50.954;11.060;2023-04-29T04:12:50;4.20;;;3.10;;
78750;SDS011;68070;50.954;11.060;2023-04-29T04:15:34;4.30;;;3.30;;
78750;SDS011;68070;50.954;11.060;2023-04-29T04:18:18;3.70;;;2.70;;
78750;SDS011;68070;50.954;11.060;2023-04-29T04:21:10;4.50;;;2.80;;
78750;SDS011;68070;50.954;11.060;2023-04-29T04:23:56;3.70;;;2.80;;
78750;SDS011;68070;50.954;11.060;2023-04-29T04:26:41;5.10;;;2.90;;
78750;SDS011;68070;50.954;11.060;2023-04-29T04:29:35;5.30;;;2.70;;
78750;SDS011;68070;50.954;11.060;2023-04-29T04:32:25;6.20;;;4.40;;
78750;SDS011;68070;50.954;11.060;2023-04-29T04:35:09;3.30;;;2.40;;
78750;SDS011;68070;50.954;11.060;2023-04-29T04:37:54;5.10;;;3.60;;
78750;SDS011;68070;50.954;11.060;2023-04-29T04:40:41;3.00;;;2.10;;
78750;SDS011;68070;50.954;11.060;2023-04-29T04:43:50;5.00;;;2.90;;
78750;SDS011;68070;50.954;11.060;2023-04-29T04:46:40;4.50;;;3.00;;
78750;SDS011;68070;50.954;11.060;2023-04-29T04:49:30;7.20;;;3.70;;
78750;SDS011;68070;50.954;11.060;2023-04-29T04:52:15;4.10;;;2.90;;
78750;SDS011;68070;50.954;11.060;2023-04-29T04:55:00;8.90;;;3.50;;
78750;SDS011;68070;50.954;11.060;2023-04-29T04:57:45;4.70;;;3.60;;
78750;SDS011;68070;50.954;11.060;2023-04-29T05:00:29;5.20;;;4.00;;
78750;SDS011;68070;50.954;11.060;2023-04-29T05:03:14;5.80;;;3.90;;
78750;SDS011;68070;50.954;11.060;2023-04-29T05:05:59;4.60;;;3.30;;
78750;SDS011;68070;50.954;11.060;2023-04-29T05:08:44;5.30;;;4.00;;
78750;SDS011;68070;50.954;11.060;2023-04-29T05:11:30;4.80;;;2.90;;
78750;SDS011;68070;50.954;11.060;2023-04-29T05:14:22;3.70;;;3.00;;
78750;SDS011;68070;50.954;11.060;2023-04-29T05:17:06;5.40;;;4.30;;
78750;SDS011;68070;50.954;11.060;2023-04-29T05:19:54;5.60;;;3.90;;
78750;SDS011;68070;50.954;11.060;2023-04-29T05:22:39;5.50;;;3.70;;
78750;SDS011;68070;50.954;11.060;2023-04-29T05:25:25;4.80;;;2.80;;
78750;SDS011;68070;50.954;11.060;2023-04-29T05:28:10;4.60;;;3.60;;
78750;SDS011;68070;50.954;11.060;2023-04-29T05:30:56;6.90;;;4.40;;
78750;SDS011;68070;50.954;11.060;2023-04-29T05:33:41;5.80;;;3.30;;
78750;SDS011;68070;50.954;11.060;2023-04-29T05:36:26;5.20;;;3.70;;
78750;SDS011;68070;50.954;11.060;2023-04-29T05:39:11;4.30;;;3.20;;
78750;SDS011;68070;50.954;11.060;2023-04-29T05:41:56;5.60;;;4.10;;
78750;SDS011;68070;50.954;11.060;2023-04-29T05:44:54;6.00;;;3.70;;
78750;SDS011;68070;50.954;11.060;2023-04-29T05:47:38;5.20;;;3.60;;
78750;SDS011;68070;50.954;11.060;2023-04-29T05:50:24;7.00;;;5.00;;
78750;SDS011;68070;50.954;11.060;2023-04-29T05:53:09;4.30;;;3.40;;
78750;SDS011;68070;50.954;11.060;2023-04-29T05:55:53;4.50;;;3.30;;
78750;SDS011;68070;50.954;11.060;2023-04-29T05:58:38;5.50;;;4.10;;
78750;SDS011;68070;50.954;11.060;2023-04-29T06:01:23;5.60;;;4.10;;
78750;SDS011;68070;50.954;11.060;2023-04-29T06:04:07;6.70;;;3.70;;
78750;SDS011;68070;50.954;11.060;2023-04-29T06:07:14;5.60;;;3.50;;
78750;SDS011;68070;50.954;11.060;2023-04-29T06:10:16;5.60;;;3.70;;
78750;SDS011;68070;50.954;11.060;2023-04-29T06:13:02;6.90;;;4.60;;
78750;SDS011;68070;50.954;11.060;2023-04-29T06:15:46;5.50;;;3.40;;
78750;SDS011;68070;50.954;11.060;2023-04-29T06:18:32;6.20;;;4.70;;
78750;SDS011;68070;50.954;11.060;2023-04-29T06:21:17;4.20;;;3.70;;
78750;SDS011;68070;50.954;11.060;2023-04-29T06:24:01;7.60;;;4.90;;
78750;SDS011;68070;50.954;11.060;2023-04-29T06:26:46;5.00;;;3.70;;
78750;SDS011;68070;50.954;11.060;2023-04-29T06:29:32;5.20;;;3.20;;
78750;SDS011;68070;50.954;11.060;2023-04-29T06:32:16;6.70;;;4.80;;
78750;SDS011;68070;50.954;11.060;2023-04-29T06:35:02;6.00;;;3.90;;
78750;SDS011;68070;50.954;11.060;2023-04-29T06:38:10;6.00;;;3.30;;
78750;SDS011;68070;50.954;11.060;2023-04-29T06:41:17;4.90;;;3.40;;
78750;SDS011;68070;50.954;11.060;2023-04-29T06:44:11;7.00;;;3.70;;
78750;SDS011;68070;50.954;11.060;2023-04-29T06:47:14;6.50;;;4.30;;
78750;SDS011;68070;50.954;11.060;2023-04-29T06:50:06;5.80;;;3.80;;
78750;SDS011;68070;50.954;11.060;2023-04-29T06:52:50;7.10;;;4.10;;
78750;SDS011;68070;50.954;11.060;2023-04-29T06:55:35;7.00;;;4.30;;
78750;SDS011;68070;50.954;11.060;2023-04-29T06:58:20;5.90;;;4.30;;
78750;SDS011;68070;50.954;11.060;2023-04-29T07:01:05;5.70;;;4.30;;
78750;SDS011;68070;50.954;11.060;2023-04-29T07:03:51;4.00;;;3.30;;
78750;SDS011;68070;50.954;11.060;2023-04-29T07:06:36;6.50;;;4.60;;
78750;SDS011;68070;50.954;11.060;2023-04-29T07:09:20;3.60;;;2.60;;
78750;SDS011;68070;50.954;11.060;2023-04-29T07:12:06;3.50;;;2.50;;
78750;SDS011;68070;50.954;11.060;2023-04-29T07:14:51;4.70;;;3.00;;
78750;SDS011;68070;50.954;11.060;2023-04-29T07:17:36;5.30;;;3.50;;
78750;SDS011;68070;50.954;11.060;2023-04-29T07:20:21;4.90;;;3.50;;
78750;SDS011;68070;50.954;11.060;2023-04-29T07:23:07;4.70;;;3.30;;
78750;SDS011;68070;50.954;11.060;2023-04-29T07:25:51;5.60;;;3.80;;
78750;SDS011;68070;50.954;11.060;2023-04-29T07:28:35;4.50;;;3.20;;
78750;SDS011;68070;50.954;11.060;2023-04-29T07:31:20;4.50;;;2.80;;
78750;SDS011;68070;50.954;11.060;2023-04-29T07:34:05;6.20;;;3.30;;
78750;SDS011;68070;50.954;11.060;2023-04-29T07:36:49;3.90;;;2.30;;
78750;SDS011;68070;50.954;11.060;2023-04-29T07:39:34;6.40;;;3.10;;
78750;SDS011;68070;50.954;11.060;2023-04-29T07:42:20;5.00;;;3.10;;
78750;SDS011;68070;50.954;11.060;2023-04-29T07:45:05;4.40;;;3.30;;
78750;SDS011;68070;50.954;11.060;2023-04-29T07:47:51;6.10;;;4.20;;
78750;SDS011;68070;50.954;11.060;2023-04-29T07:50:35;6.20;;;4.20;;
78750;SDS011;68070;50.954;11.060;2023-04-29T07:53:19;7.00;;;4.10;;
78750;SDS011;68070;50.954;11.060;2023-04-29T07:56:07;6.00;;;3.80;;
78750;SDS011;68070;50.954;11.060;2023-04-29T07:58:52;7.30;;;4.20;;
78750;SDS011;68070;50.954;11.060;2023-04-29T08:01:42;6.90;;;4.80;;
78750;SDS011;68070;50.954;11.060;2023-04-29T08:04:26;4.70;;;3.10;;
78750;SDS011;68070;50.954;11.060;2023-04-29T08:07:21;6.10;;;4.30;;
78750;SDS011;68070;50.954;11.060;2023-04-29T08:10:06;5.80;;;4.00;;
78750;SDS011;68070;50.954;11.060;2023-04-29T08:12:56;6.30;;;3.30;;
78750;SDS011;68070;50.954;11.060;2023-04-29T08:15:41;4.90;;;3.70;;
78750;SDS011;68070;50.954;11.060;2023-04-29T08:18:25;6.00;;;4.00;;
78750;SDS011;68070;50.954;11.060;2023-04-29T08:21:10;7.10;;;4.20;;
78750;SDS011;68070;50.954;11.060;2023-04-29T08:23:55;5.30;;;3.10;;
78750;SDS011;68070;50.954;11.060;2023-04-29T08:26:39;4.70;;;3.20;;
78750;SDS011;68070;50.954;11.060;2023-04-29T08:29:25;6.20;;;3.80;;
78750;SDS011;68070;50.954;11.060;2023-04-29T08:32:09;7.60;;;4.30;;
78750;SDS011;68070;50.954;11.060;2023-04-29T08:34:53;5.60;;;3.50;;
78750;SDS011;68070;50.954;11.060;2023-04-29T08:37:38;5.60;;;3.90;;
78750;SDS011;68070;50.954;11.060;2023-04-29T08:40:22;7.00;;;4.90;;
78750;SDS011;68070;50.954;11.060;2023-04-29T08:43:07;8.50;;;3.00;;
78750;SDS011;68070;50.954;11.060;2023-04-29T08:45:53;6.10;;;3.40;;
78750;SDS011;68070;50.954;11.060;2023-04-29T08:48:38;6.50;;;3.70;;
78750;SDS011;68070;50.954;11.060;2023-04-29T08:51:23;6.60;;;4.20;;
78750;SDS011;68070;50.954;11.060;2023-04-29T08:54:09;4.80;;;3.70;;
78750;SDS011;68070;50.954;11.060;2023-04-29T08:56:54;4.70;;;3.40;;
78750;SDS011;68070;50.954;11.060;2023-04-29T08:59:40;5.50;;;3.10;;
78750;SDS011;68070;50.954;11.060;2023-04-29T09:02:26;5.30;;;3.60;;
78750;SDS011;68070;50.954;11.060;2023-04-29T09:05:11;6.40;;;4.20;;
78750;SDS011;68070;50.954;11.060;2023-04-29T09:07:56;5.70;;;3.50;;
78750;SDS011;68070;50.954;11.060;2023-04-29T09:10:42;4.80;;;3.30;;
78750;SDS011;68070;50.954;11.060;2023-04-29T09:13:30;4.10;;;2.90;;
78750;SDS011;68070;50.954;11.060;2023-04-29T09:16:16;3.90;;;2.40;;
78750;SDS011;68070;50.954;11.060;2023-04-29T09:49:43;5.00;;;3.10;;
78750;SDS011;68070;50.954;11.060;2023-04-29T09:52:39;5.70;;;4.00;;
78750;SDS011;68070;50.954;11.060;2023-04-29T09:55:25;6.70;;;4.10;;
78750;SDS011;68070;50.954;11.060;2023-04-29T09:58:28;7.40;;;4.90;;
78750;SDS011;68070;50.954;11.060;2023-04-29T10:01:17;7.10;;;4.50;;
78750;SDS011;68070;50.954;11.060;2023-04-29T10:04:05;6.90;;;5.30;;
78750;SDS011;68070;50.954;11.060;2023-04-29T10:06:52;7.60;;;4.40;;
78750;SDS011;68070;50.954;11.060;2023-04-29T10:09:38;9.20;;;4.00;;
78750;SDS011;68070;50.954;11.060;2023-04-29T10:12:23;7.00;;;4.30;;
78750;SDS011;68070;50.954;11.060;2023-04-29T10:18:13;5.90;;;4.80;;
78750;SDS011;68070;50.954;11.060;2023-04-29T10:21:00;7.10;;;4.90;;
78750;SDS011;68070;50.954;11.060;2023-04-29T10:23:46;6.80;;;4.60;;
78750;SDS011;68070;50.954;11.060;2023-04-29T10:26:32;5.20;;;3.80;;
78750;SDS011;68070;50.954;11.060;2023-04-29T10:29:20;6.60;;;5.10;;
78750;SDS011;68070;50.954;11.060;2023-04-29T10:32:07;7.40;;;5.20;;
78750;SDS011;68070;50.954;11.060;2023-04-29T10:34:55;7.80;;;5.00;;
78750;SDS011;68070;50.954;11.060;2023-04-29T10:37:41;5.90;;;3.90;;
78750;SDS011;68070;50.954;11.060;2023-04-29T10:40:35;5.70;;;4.20;;
78750;SDS011;68070;50.954;11.060;2023-04-29T10:43:25;7.50;;;5.80;;
78750;SDS011;68070;50.954;11.060;2023-04-29T10:49:10;6.50;;;4.40;;
78750;SDS011;68070;50.954;11.060;2023-04-29T10:51:59;6.20;;;4.60;;
78750;SDS011;68070;50.954;11.060;2023-04-29T10:55:00;8.10;;;5.60;;
78750;SDS011;68070;50.954;11.060;2023-04-29T10:57:45;7.20;;;5.50;;
78750;SDS011;68070;50.954;11.060;2023-04-29T11:00:31;8.60;;;6.40;;
78750;SDS011;68070;50.954;11.060;2023-04-29T11:03:43;7.30;;;5.60;;
78750;SDS011;68070;50.954;11.060;2023-04-29T11:12:10;10.20;;;5.60;;
78750;SDS011;68070;50.954;11.060;2023-04-29T11:14:56;10.30;;;6.40;;
78750;SDS011;68070;50.954;11.060;2023-04-29T11:17:46;7.90;;;5.00;;
78750;SDS011;68070;50.954;11.060;2023-04-29T11:20:31;7.70;;;5.10;;
78750;SDS011;68070;50.954;11.060;2023-04-29T11:23:48;7.10;;;5.20;;
78750;SDS011;68070;50.954;11.060;2023-04-29T11:26:35;8.30;;;5.40;;
78750;SDS011;68070;50.954;11.060;2023-04-29T11:29:19;8.00;;;6.50;;
78750;SDS011;68070;50.954;11.060;2023-04-29T11:32:06;9.70;;;6.40;;
78750;SDS011;68070;50.954;11.060;2023-04-29T11:34:51;8.40;;;5.90;;
78750;SDS011;68070;50.954;11.060;2023-04-29T11:37:36;8.20;;;6.30;;
78750;SDS011;68070;50.954;11.060;2023-04-29T11:40:21;7.70;;;5.80;;
78750;SDS011;68070;50.954;11.060;2023-04-29T11:43:05;7.60;;;5.10;;
78750;SDS011;68070;50.954;11.060;2023-04-29T11:45:51;7.40;;;5.00;;
78750;SDS011;68070;50.954;11.060;2023-04-29T11:48:36;11.30;;;7.10;;
78750;SDS011;68070;50.954;11.060;2023-04-29T11:51:25;12.50;;;7.50;;
78750;SDS011;68070;50.954;11.060;2023-04-29T11:54:09;11.40;;;7.10;;
78750;SDS011;68070;50.954;11.060;2023-04-29T11:56:54;8.80;;;6.20;;
78750;SDS011;68070;50.954;11.060;2023-04-29T11:59:40;9.90;;;7.00;;
78750;SDS011;68070;50.954;11.060;2023-04-29T12:02:29;8.30;;;5.20;;
78750;SDS011;68070;50.954;11.060;2023-04-29T12:38:24;10.40;;;7.60;;
78750;SDS011;68070;50.954;11.060;2023-04-29T12:44:00;13.20;;;9.50;;
78750;SDS011;68070;50.954;11.060;2023-04-29T12:46:44;12.90;;;9.00;;
78750;SDS011;68070;50.954;11.060;2023-04-29T12:49:29;10.50;;;7.00;;
78750;SDS011;68070;50.954;11.060;2023-04-29T12:52:13;9.20;;;5.80;;
78750;SDS011;68070;50.954;11.060;2023-04-29T12:54:57;10.00;;;7.50;;
78750;SDS011;68070;50.954;11.060;2023-04-29T12:57:42;10.80;;;7.50;;
78750;SDS011;68070;50.954;11.060;2023-04-29T13:00:26;11.60;;;8.00;;
78750;SDS011;68070;50.954;11.060;2023-04-29T13:03:11;10.30;;;7.00;;
78750;SDS011;68070;50.954;11.060;2023-04-29T13:05:55;8.50;;;5.90;;
78750;SDS011;68070;50.954;11.060;2023-04-29T13:08:40;6.70;;;5.50;;
78750;SDS011;68070;50.954;11.060;2023-04-29T13:11:25;10.20;;;7.60;;
78750;SDS011;68070;50.954;11.060;2023-04-29T13:14:09;10.30;;;6.90;;
78750;SDS011;68070;50.954;11.060;2023-04-29T13:16:54;7.50;;;5.20;;
78750;SDS011;68070;50.954;11.060;2023-04-29T13:19:39;10.00;;;7.30;;
78750;SDS011;68070;50.954;11.060;2023-04-29T13:22:23;10.80;;;8.40;;
78750;SDS011;68070;50.954;11.060;2023-04-29T13:25:07;11.90;;;8.90;;
78750;SDS011;68070;50.954;11.060;2023-04-29T13:27:53;8.80;;;5.80;;
78750;SDS011;68070;50.954;11.060;2023-04-29T13:30:37;7.50;;;5.10;;
78750;SDS011;68070;50.954;11.060;2023-04-29T13:33:21;7.50;;;5.10;;
78750;SDS011;68070;50.954;11.060;2023-04-29T13:36:06;8.20;;;5.60;;
78750;SDS011;68070;50.954;11.060;2023-04-29T13:38:51;11.10;;;6.50;;
78750;SDS011;68070;50.954;11.060;2023-04-29T13:41:35;9.30;;;6.90;;
78750;SDS011;68070;50.954;11.060;2023-04-29T13:44:19;6.00;;;4.30;;
78750;SDS011;68070;50.954;11.060;2023-04-29T13:47:04;11.90;;;5.80;;
78750;SDS011;68070;50.954;11.060;2023-04-29T13:49:49;8.60;;;6.60;;
78750;SDS011;68070;50.954;11.060;2023-04-29T13:52:33;7.20;;;5.90;;
78750;SDS011;68070;50.954;11.060;2023-04-29T13:55:18;9.20;;;6.70;;
78750;SDS011;68070;50.954;11.060;2023-04-29T13:58:04;8.50;;;6.20;;
78750;SDS011;68070;50.954;11.060;2023-04-29T14:00:48;8.90;;;6.30;;
78750;SDS011;68070;50.954;11.060;2023-04-29T14:03:33;9.00;;;6.40;;
78750;SDS011;68070;50.954;11.060;2023-04-29T14:06:18;9.10;;;7.40;;
78750;SDS011;68070;50.954;11.060;2023-04-29T14:09:03;7.40;;;5.80;;
78750;SDS011;68070;50.954;11.060;2023-04-29T14:11:47;7.20;;;5.00;;
78750;SDS011;68070;50.954;11.060;2023-04-29T14:14:32;5.80;;;4.40;;
78750;SDS011;68070;50.954;11.060;2023-04-29T14:17:17;10.40;;;6.70;;
78750;SDS011;68070;50.954;11.060;2023-04-29T14:20:01;8.00;;;6.00;;
78750;SDS011;68070;50.954;11.060;2023-04-29T14:22:47;8.00;;;6.50;;
78750;SDS011;68070;50.954;11.060;2023-04-29T14:25:31;8.80;;;6.80;;
78750;SDS011;68070;50.954;11.060;2023-04-29T14:28:16;7.00;;;6.00;;
78750;SDS011;68070;50.954;11.060;2023-04-29T14:31:00;7.60;;;5.70;;
78750;SDS011;68070;50.954;11.060;2023-04-29T14:33:44;8.30;;;6.20;;
78750;SDS011;68070;50.954;11.060;2023-04-29T14:36:29;8.60;;;6.50;;
78750;SDS011;68070;50.954;11.060;2023-04-29T14:39:15;6.60;;;5.10;;
78750;SDS011;68070;50.954;11.060;2023-04-29T14:41:59;5.90;;;5.30;;
78750;SDS011;68070;50.954;11.060;2023-04-29T14:44:45;6.30;;;4.80;;
78750;SDS011;68070;50.954;11.060;2023-04-29T14:47:29;7.60;;;5.00;;
78750;SDS011;68070;50.954;11.060;2023-04-29T14:50:15;5.40;;;4.20;;
78750;SDS011;68070;50.954;11.060;2023-04-29T14:53:00;5.50;;;3.90;;
78750;SDS011;68070;50.954;11.060;2023-04-29T14:55:44;7.20;;;6.40;;
78750;SDS011;68070;50.954;11.060;2023-04-29T14:58:29;5.70;;;3.70;;
78750;SDS011;68070;50.954;11.060;2023-04-29T15:01:13;6.80;;;5.40;;
78750;SDS011;68070;50.954;11.060;2023-04-29T15:03:59;7.20;;;5.00;;
78750;SDS011;68070;50.954;11.060;2023-04-29T15:07:00;7.20;;;6.10;;
78750;SDS011;68070;50.954;11.060;2023-04-29T15:10:12;7.60;;;5.30;;
78750;SDS011;68070;50.954;11.060;2023-04-29T15:12:56;8.60;;;6.60;;
78750;SDS011;68070;50.954;11.060;2023-04-29T15:15:41;7.70;;;5.80;;
78750;SDS011;68070;50.954;11.060;2023-04-29T15:18:25;9.80;;;6.60;;
78750;SDS011;68070;50.954;11.060;2023-04-29T15:21:10;9.20;;;5.70;;
78750;SDS011;68070;50.954;11.060;2023-04-29T15:23:55;6.90;;;5.00;;
78750;SDS011;68070;50.954;11.060;2023-04-29T15:26:39;6.90;;;6.20;;
78750;SDS011;68070;50.954;11.060;2023-04-29T15:29:23;6.70;;;5.30;;
78750;SDS011;68070;50.954;11.060;2023-04-29T15:32:08;7.80;;;6.60;;
78750;SDS011;68070;50.954;11.060;2023-04-29T15:34:53;9.20;;;6.10;;
78750;SDS011;68070;50.954;11.060;2023-04-29T15:37:38;10.20;;;6.10;;
78750;SDS011;68070;50.954;11.060;2023-04-29T15:40:22;8.30;;;6.00;;
78750;SDS011;68070;50.954;11.060;2023-04-29T15:43:07;9.50;;;6.80;;
78750;SDS011;68070;50.954;11.060;2023-04-29T15:45:51;7.80;;;5.30;;
78750;SDS011;68070;50.954;11.060;2023-04-29T15:48:35;5.90;;;4.90;;
78750;SDS011;68070;50.954;11.060;2023-04-29T15:51:20;7.10;;;5.70;;
78750;SDS011;68070;50.954;11.060;2023-04-29T15:54:04;7.30;;;5.50;;
78750;SDS011;68070;50.954;11.060;2023-04-29T15:56:50;6.80;;;5.80;;
78750;SDS011;68070;50.954;11.060;2023-04-29T15:59:35;6.50;;;5.30;;
78750;SDS011;68070;50.954;11.060;2023-04-29T16:02:19;7.10;;;4.90;;
78750;SDS011;68070;50.954;11.060;2023-04-29T16:05:04;11.60;;;6.90;;
78750;SDS011;68070;50.954;11.060;2023-04-29T16:07:48;7.20;;;4.30;;
78750;SDS011;68070;50.954;11.060;2023-04-29T16:10:33;7.80;;;6.00;;
78750;SDS011;68070;50.954;11.060;2023-04-29T16:13:17;6.90;;;4.60;;
78750;SDS011;68070;50.954;11.060;2023-04-29T16:16:02;7.50;;;6.20;;
78750;SDS011;68070;50.954;11.060;2023-04-29T16:18:46;10.50;;;6.00;;
78750;SDS011;68070;50.954;11.060;2023-04-29T16:21:31;5.50;;;4.60;;
78750;SDS011;68070;50.954;11.060;2023-04-29T16:24:15;6.70;;;4.30;;
78750;SDS011;68070;50.954;11.060;2023-04-29T16:27:00;7.00;;;4.80;;
78750;SDS011;68070;50.954;11.060;2023-04-29T16:29:45;5.80;;;4.60;;
78750;SDS011;68070;50.954;11.060;2023-04-29T16:32:30;7.10;;;4.90;;
78750;SDS011;68070;50.954;11.060;2023-04-29T16:35:16;9.40;;;5.50;;
78750;SDS011;68070;50.954;11.060;2023-04-29T16:38:00;7.50;;;6.70;;
78750;SDS011;68070;50.954;11.060;2023-04-29T16:40:45;8.10;;;5.70;;
78750;SDS011;68070;50.954;11.060;2023-04-29T16:43:29;8.90;;;4.60;;
78750;SDS011;68070;50.954;11.060;2023-04-29T16:46:15;8.50;;;5.60;;
78750;SDS011;68070;50.954;11.060;2023-04-29T16:48:59;6.10;;;5.30;;
78750;SDS011;68070;50.954;11.060;2023-04-29T16:51:44;8.70;;;5.70;;
78750;SDS011;68070;50.954;11.060;2023-04-29T16:54:28;7.90;;;5.80;;
78750;SDS011;68070;50.954;11.060;2023-04-29T16:57:14;8.10;;;5.30;;
78750;SDS011;68070;50.954;11.060;2023-04-29T16:59:58;8.00;;;5.60;;
78750;SDS011;68070;50.954;11.060;2023-04-29T17:02:43;8.80;;;6.30;;
78750;SDS011;68070;50.954;11.060;2023-04-29T17:05:29;9.00;;;6.20;;
78750;SDS011;68070;50.954;11.060;2023-04-29T17:08:13;7.10;;;5.50;;
78750;SDS011;68070;50.954;11.060;2023-04-29T17:10:58;6.20;;;4.90;;
78750;SDS011;68070;50.954;11.060;2023-04-29T17:13:42;6.60;;;4.50;;
78750;SDS011;68070;50.954;11.060;2023-04-29T17:16:27;9.90;;;5.50;;
78750;SDS011;68070;50.954;11.060;2023-04-29T17:19:13;8.60;;;5.70;;
78750;SDS011;68070;50.954;11.060;2023-04-29T17:21:57;8.30;;;5.20;;
78750;SDS011;68070;50.954;11.060;2023-04-29T17:24:42;8.40;;;5.70;;
78750;SDS011;68070;50.954;11.060;2023-04-29T17:27:29;7.00;;;5.70;;
78750;SDS011;68070;50.954;11.060;2023-04-29T17:30:14;6.70;;;4.70;;
78750;SDS011;68070;50.954;11.060;2023-04-29T17:32:58;9.20;;;5.50;;
78750;SDS011;68070;50.954;11.060;2023-04-29T17:35:47;13.30;;;5.60;;
78750;SDS011;68070;50.954;11.060;2023-04-29T17:38:32;8.80;;;6.10;;
78750;SDS011;68070;50.954;11.060;2023-04-29T17:41:16;9.30;;;7.10;;
78750;SDS011;68070;50.954;11.060;2023-04-29T17:44:00;10.00;;;5.70;;
78750;SDS011;68070;50.954;11.060;2023-04-29T17:46:45;8.20;;;5.10;;
78750;SDS011;68070;50.954;11.060;2023-04-29T17:49:29;5.50;;;4.80;;
78750;SDS011;68070;50.954;11.060;2023-04-29T17:52:14;8.20;;;5.70;;
78750;SDS011;68070;50.954;11.060;2023-04-29T17:55:00;7.40;;;5.70;;
78750;SDS011;68070;50.954;11.060;2023-04-29T17:57:45;7.90;;;5.50;;
78750;SDS011;68070;50.954;11.060;2023-04-29T18:00:29;8.10;;;5.90;;
78750;SDS011;68070;50.954;11.060;2023-04-29T18:03:13;7.60;;;5.90;;
78750;SDS011;68070;50.954;11.060;2023-04-29T18:05:58;6.70;;;4.80;;
78750;SDS011;68070;50.954;11.060;2023-04-29T18:08:43;7.30;;;5.50;;